sensor_id;sensor_type;location;lat;lon;timestamp;pressure;altitude;pressure_sealevel;temperature;humidity
65872;BME280;52653;50.080;21.992;2022-07-05T00:00:41;99160.82;;;18.03;70.78
65872;BME280;52653;50.080;21.992;2022-07-05T00:03:14;99162.05;;;17.98;70.75
65872;BME280;52653;50.080;21.992;2022-07-05T00:05:46;99163.31;;;17.93;70.69
65872;BME280;52653;50.080;21.992;2022-07-05T00:08:18;99168.65;;;17.88;70.94
65872;BME280;52653;50.080;21.992;2022-07-05T00:10:50;99172.22;;;17.83;71.02
65872;BME280;52653;50.080;21.992;2022-07-05T00:13:23;99175.05;;;17.78;71.47
65872;BME280;52653;50.080;21.992;2022-07-05T00:15:55;99176.48;;;17.78;71.64
65872;BME280;52653;50.080;21.992;2022-07-05T00:18:27;99176.94;;;17.81;72.03
65872;BME280;52653;50.080;21.992;2022-07-05T00:21:01;99182.55;;;17.87;72.09
65872;BME280;52653;50.080;21.992;2022-07-05T00:23:33;99184.21;;;17.95;72.32
65872;BME280;52653;50.080;21.992;2022-07-05T00:26:05;99180.44;;;18.05;72.23
65872;BME280;52653;50.080;21.992;2022-07-05T00:28:37;99179.86;;;18.15;72.25
65872;BME280;52653;50.080;21.992;2022-07-05T00:31:09;99177.67;;;18.21;72.14
65872;BME280;52653;50.080;21.992;2022-07-05T00:33:41;99175.82;;;18.23;71.87
65872;BME280;52653;50.080;21.992;2022-07-05T00:36:13;99173.31;;;18.23;71.89
65872;BME280;52653;50.080;21.992;2022-07-05T00:38:45;99167.27;;;18.23;71.91
65872;BME280;52653;50.080;21.992;2022-07-05T00:41:17;99165.20;;;18.22;72.02
65872;BME280;52653;50.080;21.992;2022-07-05T00:43:54;99167.23;;;18.24;71.93
65872;BME280;52653;50.080;21.992;2022-07-05T00:46:27;99168.30;;;18.29;71.84
65872;BME280;52653;50.080;21.992;2022-07-05T00:49:01;99167.58;;;18.34;71.72
65872;BME280;52653;50.080;21.992;2022-07-05T00:51:37;99167.46;;;18.37;71.95
65872;BME280;52653;50.080;21.992;2022-07-05T00:54:34;99168.88;;;18.41;71.92
65872;BME280;52653;50.080;21.992;2022-07-05T00:57:09;99171.67;;;18.42;71.93
65872;BME280;52653;50.080;21.992;2022-07-05T00:59:41;99169.61;;;18.41;71.94
65872;BME280;52653;50.080;21.992;2022-07-05T01:02:13;99170.64;;;18.37;71.95
65872;BME280;52653;50.080;21.992;2022-07-05T01:05:09;99173.04;;;18.35;71.98
65872;BME280;52653;50.080;21.992;2022-07-05T01:07:41;99172.98;;;18.36;71.75
65872;BME280;52653;50.080;21.992;2022-07-05T01:10:13;99176.80;;;18.38;71.67
65872;BME280;52653;50.080;21.992;2022-07-05T01:12:53;99177.40;;;18.41;71.77
65872;BME280;52653;50.080;21.992;2022-07-05T01:15:25;99180.31;;;18.44;72.04
65872;BME280;52653;50.080;21.992;2022-07-05T01:18:01;99181.81;;;18.47;71.94
65872;BME280;52653;50.080;21.992;2022-07-05T01:20:33;99184.98;;;18.47;72.07
65872;BME280;52653;50.080;21.992;2022-07-05T01:23:05;99189.14;;;18.49;71.92
65872;BME280;52653;50.080;21.992;2022-07-05T01:25:47;99188.83;;;18.53;72.01
65872;BME280;52653;50.080;21.992;2022-07-05T01:28:19;99190.21;;;18.54;71.74
65872;BME280;52653;50.080;21.992;2022-07-05T01:30:52;99188.36;;;18.56;72.05
65872;BME280;52653;50.080;21.992;2022-07-05T01:33:35;99188.51;;;18.61;72.08
65872;BME280;52653;50.080;21.992;2022-07-05T01:36:12;99188.50;;;18.66;71.69
65872;BME280;52653;50.080;21.992;2022-07-05T01:38:45;99195.91;;;18.72;71.27
65872;BME280;52653;50.080;21.992;2022-07-05T01:41:17;99199.81;;;18.76;71.53
65872;BME280;52653;50.080;21.992;2022-07-05T01:43:49;99198.85;;;18.83;71.09
65872;BME280;52653;50.080;21.992;2022-07-05T01:46:22;99195.23;;;18.88;71.43
65872;BME280;52653;50.080;21.992;2022-07-05T01:48:58;99193.33;;;18.91;71.21
65872;BME280;52653;50.080;21.992;2022-07-05T01:51:36;99188.58;;;18.90;71.49
65872;BME280;52653;50.080;21.992;2022-07-05T01:54:09;99187.45;;;18.88;71.62
65872;BME280;52653;50.080;21.992;2022-07-05T01:56:41;99182.38;;;18.85;71.50
65872;BME280;52653;50.080;21.992;2022-07-05T01:59:25;99176.92;;;18.85;71.53
65872;BME280;52653;50.080;21.992;2022-07-05T02:01:58;99171.08;;;18.84;71.73
65872;BME280;52653;50.080;21.992;2022-07-05T02:04:31;99169.79;;;18.85;71.51
65872;BME280;52653;50.080;21.992;2022-07-05T02:07:24;99171.86;;;18.90;71.51
65872;BME280;52653;50.080;21.992;2022-07-05T02:09:56;99169.88;;;18.95;71.58
65872;BME280;52653;50.080;21.992;2022-07-05T02:12:28;99165.13;;;18.98;71.11
65872;BME280;52653;50.080;21.992;2022-07-05T02:15:00;99165.23;;;18.96;70.96
65872;BME280;52653;50.080;21.992;2022-07-05T02:17:32;99172.16;;;18.92;70.94
65872;BME280;52653;50.080;21.992;2022-07-05T02:20:05;99169.05;;;18.86;71.14
65872;BME280;52653;50.080;21.992;2022-07-05T02:22:39;99168.64;;;18.83;71.16
65872;BME280;52653;50.080;21.992;2022-07-05T02:25:12;99174.67;;;18.83;70.38
65872;BME280;52653;50.080;21.992;2022-07-05T02:27:44;99177.98;;;18.80;70.12
65872;BME280;52653;50.080;21.992;2022-07-05T02:30:20;99177.96;;;18.80;69.86
65872;BME280;52653;50.080;21.992;2022-07-05T02:32:52;99177.08;;;18.81;69.64
65872;BME280;52653;50.080;21.992;2022-07-05T02:35:25;99180.03;;;18.83;69.55
65872;BME280;52653;50.080;21.992;2022-07-05T02:38:00;99176.50;;;18.77;69.65
65872;BME280;52653;50.080;21.992;2022-07-05T02:40:34;99177.15;;;18.70;69.65
65872;BME280;52653;50.080;21.992;2022-07-05T02:43:06;99173.98;;;18.65;69.85
65872;BME280;52653;50.080;21.992;2022-07-05T02:45:38;99169.23;;;18.59;70.15
65872;BME280;52653;50.080;21.992;2022-07-05T02:48:22;99173.31;;;18.54;70.13
65872;BME280;52653;50.080;21.992;2022-07-05T02:50:54;99177.99;;;18.48;70.67
65872;BME280;52653;50.080;21.992;2022-07-05T02:53:27;99183.58;;;18.42;70.82
65872;BME280;52653;50.080;21.992;2022-07-05T02:55:59;99186.98;;;18.41;70.93
65872;BME280;52653;50.080;21.992;2022-07-05T02:58:32;99193.34;;;18.42;71.20
65872;BME280;52653;50.080;21.992;2022-07-05T03:01:04;99199.89;;;18.43;71.09
65872;BME280;52653;50.080;21.992;2022-07-05T03:03:38;99197.55;;;18.48;71.16
65872;BME280;52653;50.080;21.992;2022-07-05T03:06:10;99199.61;;;18.54;71.19
65872;BME280;52653;50.080;21.992;2022-07-05T03:08:42;99198.80;;;18.57;71.38
65872;BME280;52653;50.080;21.992;2022-07-05T03:11:15;99197.46;;;18.55;71.18
65872;BME280;52653;50.080;21.992;2022-07-05T03:13:50;99201.59;;;18.53;71.27
65872;BME280;52653;50.080;21.992;2022-07-05T03:16:34;99204.24;;;18.63;71.43
65872;BME280;52653;50.080;21.992;2022-07-05T03:19:06;99209.84;;;18.74;71.15
65872;BME280;52653;50.080;21.992;2022-07-05T03:21:39;99208.02;;;18.84;71.24
65872;BME280;52653;50.080;21.992;2022-07-05T03:24:11;99208.95;;;18.96;71.07
65872;BME280;52653;50.080;21.992;2022-07-05T03:26:43;99213.80;;;19.03;70.94
65872;BME280;52653;50.080;21.992;2022-07-05T03:29:19;99219.39;;;19.10;70.46
65872;BME280;52653;50.080;21.992;2022-07-05T03:31:51;99219.33;;;19.15;70.69
65872;BME280;52653;50.080;21.992;2022-07-05T03:34:23;99220.45;;;19.26;70.71
65872;BME280;52653;50.080;21.992;2022-07-05T03:36:56;99223.59;;;19.36;70.69
65872;BME280;52653;50.080;21.992;2022-07-05T03:39:31;99228.63;;;19.43;70.81
65872;BME280;52653;50.080;21.992;2022-07-05T03:42:03;99226.16;;;19.51;70.77
65872;BME280;52653;50.080;21.992;2022-07-05T03:44:35;99225.16;;;19.58;70.89
65872;BME280;52653;50.080;21.992;2022-07-05T03:47:07;99224.10;;;19.62;70.73
65872;BME280;52653;50.080;21.992;2022-07-05T03:49:39;99224.30;;;19.70;70.65
65872;BME280;52653;50.080;21.992;2022-07-05T03:52:12;99232.73;;;19.80;70.63
65872;BME280;52653;50.080;21.992;2022-07-05T03:54:44;99234.95;;;19.86;70.52
65872;BME280;52653;50.080;21.992;2022-07-05T03:57:19;99239.99;;;19.88;70.58
65872;BME280;52653;50.080;21.992;2022-07-05T03:59:52;99243.34;;;19.93;70.42
65872;BME280;52653;50.080;21.992;2022-07-05T04:02:24;99245.66;;;19.93;69.59
65872;BME280;52653;50.080;21.992;2022-07-05T04:04:56;99245.79;;;19.86;69.02
65872;BME280;52653;50.080;21.992;2022-07-05T04:07:28;99248.63;;;19.83;68.93
65872;BME280;52653;50.080;21.992;2022-07-05T04:10:00;99252.39;;;19.82;68.75
65872;BME280;52653;50.080;21.992;2022-07-05T04:12:32;99260.11;;;19.80;68.71
65872;BME280;52653;50.080;21.992;2022-07-05T04:15:07;99264.38;;;19.77;68.42
65872;BME280;52653;50.080;21.992;2022-07-05T04:17:48;99266.00;;;19.76;68.93
65872;BME280;52653;50.080;21.992;2022-07-05T04:20:21;99265.31;;;19.83;68.70
65872;BME280;52653;50.080;21.992;2022-07-05T04:22:54;99255.34;;;19.96;68.65
65872;BME280;52653;50.080;21.992;2022-07-05T04:25:27;99251.88;;;20.09;68.15
65872;BME280;52653;50.080;21.992;2022-07-05T04:28:03;99248.27;;;20.18;67.82
65872;BME280;52653;50.080;21.992;2022-07-05T04:30:36;99244.55;;;20.25;67.80
65872;BME280;52653;50.080;21.992;2022-07-05T04:33:09;99244.73;;;20.36;67.40
65872;BME280;52653;50.080;21.992;2022-07-05T04:35:41;99244.16;;;20.45;67.31
65872;BME280;52653;50.080;21.992;2022-07-05T04:38:13;99242.15;;;20.57;67.30
65872;BME280;52653;50.080;21.992;2022-07-05T04:40:46;99244.29;;;20.76;66.89
65872;BME280;52653;50.080;21.992;2022-07-05T04:43:18;99242.58;;;20.96;66.28
65872;BME280;52653;50.080;21.992;2022-07-05T04:45:50;99238.08;;;21.22;65.72
65872;BME280;52653;50.080;21.992;2022-07-05T04:48:26;99242.70;;;21.54;64.05
65872;BME280;52653;50.080;21.992;2022-07-05T04:50:59;99245.45;;;21.90;62.84
65872;BME280;52653;50.080;21.992;2022-07-05T04:53:32;99250.95;;;22.21;62.83
65872;BME280;52653;50.080;21.992;2022-07-05T04:56:07;99248.51;;;22.52;62.34
65872;BME280;52653;50.080;21.992;2022-07-05T04:58:39;99247.28;;;22.68;60.35
65872;BME280;52653;50.080;21.992;2022-07-05T05:01:20;99247.98;;;22.77;60.02
65872;BME280;52653;50.080;21.992;2022-07-05T05:03:52;99248.71;;;22.86;60.17
65872;BME280;52653;50.080;21.992;2022-07-05T05:06:24;99251.58;;;23.02;60.23
65872;BME280;52653;50.080;21.992;2022-07-05T05:08:56;99254.70;;;23.22;60.20
65872;BME280;52653;50.080;21.992;2022-07-05T05:11:29;99245.21;;;23.49;59.84
65872;BME280;52653;50.080;21.992;2022-07-05T05:14:00;99241.88;;;23.63;58.12
65872;BME280;52653;50.080;21.992;2022-07-05T05:16:32;99236.86;;;23.72;56.46
65872;BME280;52653;50.080;21.992;2022-07-05T05:19:04;99237.09;;;23.77;56.41
65872;BME280;52653;50.080;21.992;2022-07-05T05:21:36;99242.38;;;23.87;56.63
65872;BME280;52653;50.080;21.992;2022-07-05T05:24:08;99247.18;;;23.94;55.48
65872;BME280;52653;50.080;21.992;2022-07-05T05:26:40;99248.06;;;23.97;54.94
65872;BME280;52653;50.080;21.992;2022-07-05T05:29:12;99246.80;;;24.00;54.40
65872;BME280;52653;50.080;21.992;2022-07-05T05:31:44;99248.77;;;24.05;54.40
65872;BME280;52653;50.080;21.992;2022-07-05T05:34:16;99250.73;;;24.15;54.14
65872;BME280;52653;50.080;21.992;2022-07-05T05:36:48;99248.60;;;24.26;54.18
65872;BME280;52653;50.080;21.992;2022-07-05T05:39:22;99248.14;;;24.36;53.73
65872;BME280;52653;50.080;21.992;2022-07-05T05:41:54;99249.19;;;24.48;53.70
65872;BME280;52653;50.080;21.992;2022-07-05T05:44:26;99248.70;;;24.61;53.18
65872;BME280;52653;50.080;21.992;2022-07-05T05:46:57;99249.85;;;24.74;52.85
65872;BME280;52653;50.080;21.992;2022-07-05T05:49:29;99249.48;;;24.84;52.33
65872;BME280;52653;50.080;21.992;2022-07-05T05:52:01;99246.94;;;24.93;51.87
65872;BME280;52653;50.080;21.992;2022-07-05T05:54:33;99252.95;;;25.03;52.23
65872;BME280;52653;50.080;21.992;2022-07-05T05:57:06;99257.33;;;25.13;51.45
65872;BME280;52653;50.080;21.992;2022-07-05T05:59:37;99258.48;;;25.25;51.58
65872;BME280;52653;50.080;21.992;2022-07-05T06:02:09;99264.14;;;25.37;50.63
65872;BME280;52653;50.080;21.992;2022-07-05T06:04:41;99267.35;;;25.53;50.89
65872;BME280;52653;50.080;21.992;2022-07-05T06:07:13;99272.64;;;25.76;50.30
65872;BME280;52653;50.080;21.992;2022-07-05T06:09:45;99270.69;;;25.96;48.98
65872;BME280;52653;50.080;21.992;2022-07-05T06:12:17;99263.66;;;26.07;48.22
65872;BME280;52653;50.080;21.992;2022-07-05T06:14:49;99256.63;;;26.22;48.74
65872;BME280;52653;50.080;21.992;2022-07-05T06:17:21;99257.44;;;26.39;47.53
65872;BME280;52653;50.080;21.992;2022-07-05T06:19:56;99252.38;;;26.52;47.66
65872;BME280;52653;50.080;21.992;2022-07-05T06:22:27;99252.91;;;26.67;47.35
65872;BME280;52653;50.080;21.992;2022-07-05T06:24:59;99252.74;;;26.76;46.82
65872;BME280;52653;50.080;21.992;2022-07-05T06:27:53;99255.13;;;26.83;45.87
65872;BME280;52653;50.080;21.992;2022-07-05T06:30:27;99260.52;;;26.87;46.41
65872;BME280;52653;50.080;21.992;2022-07-05T06:32:59;99264.98;;;27.00;45.93
65872;BME280;52653;50.080;21.992;2022-07-05T06:35:32;99263.01;;;27.11;45.30
65872;BME280;52653;50.080;21.992;2022-07-05T06:38:06;99257.39;;;27.15;45.11
65872;BME280;52653;50.080;21.992;2022-07-05T06:40:39;99250.25;;;27.20;44.77
65872;BME280;52653;50.080;21.992;2022-07-05T06:43:14;99250.29;;;27.19;44.84
65872;BME280;52653;50.080;21.992;2022-07-05T06:46:12;99248.38;;;27.18;44.46
65872;BME280;52653;50.080;21.992;2022-07-05T06:48:43;99245.33;;;27.18;44.92
65872;BME280;52653;50.080;21.992;2022-07-05T06:51:22;99244.23;;;27.27;44.64
65872;BME280;52653;50.080;21.992;2022-07-05T06:53:54;99242.86;;;27.36;43.99
65872;BME280;52653;50.080;21.992;2022-07-05T06:56:47;99241.30;;;27.44;43.72
65872;BME280;52653;50.080;21.992;2022-07-05T06:59:39;99240.09;;;27.63;44.65
65872;BME280;52653;50.080;21.992;2022-07-05T07:02:27;99238.02;;;27.85;43.64
65872;BME280;52653;50.080;21.992;2022-07-05T07:04:59;99234.23;;;28.05;43.23
65872;BME280;52653;50.080;21.992;2022-07-05T07:07:42;99233.83;;;28.22;42.42
65872;BME280;52653;50.080;21.992;2022-07-05T07:10:32;99237.25;;;28.40;42.02
65872;BME280;52653;50.080;21.992;2022-07-05T07:13:05;99236.81;;;28.59;41.82
65872;BME280;52653;50.080;21.992;2022-07-05T07:15:37;99234.96;;;28.74;41.36
65872;BME280;52653;50.080;21.992;2022-07-05T07:18:15;99233.17;;;28.94;41.17
65872;BME280;52653;50.080;21.992;2022-07-05T07:20:47;99233.30;;;29.00;40.60
65872;BME280;52653;50.080;21.992;2022-07-05T07:23:18;99230.38;;;28.98;40.07
65872;BME280;52653;50.080;21.992;2022-07-05T07:25:50;99225.14;;;29.02;39.86
65872;BME280;52653;50.080;21.992;2022-07-05T07:28:22;99228.98;;;29.01;39.85
65872;BME280;52653;50.080;21.992;2022-07-05T07:30:54;99228.80;;;29.06;40.54
65872;BME280;52653;50.080;21.992;2022-07-05T07:33:26;99228.98;;;29.21;40.30
65872;BME280;52653;50.080;21.992;2022-07-05T07:36:26;99238.73;;;29.55;40.03
65872;BME280;52653;50.080;21.992;2022-07-05T07:38:57;99239.59;;;29.91;39.13
65872;BME280;52653;50.080;21.992;2022-07-05T07:41:29;99237.44;;;30.28;38.98
65872;BME280;52653;50.080;21.992;2022-07-05T07:44:01;99233.73;;;30.63;38.83
65872;BME280;52653;50.080;21.992;2022-07-05T07:46:33;99229.77;;;30.93;37.47
65872;BME280;52653;50.080;21.992;2022-07-05T07:49:05;99232.33;;;31.19;36.72
65872;BME280;52653;50.080;21.992;2022-07-05T07:51:38;99227.31;;;31.45;36.47
65872;BME280;52653;50.080;21.992;2022-07-05T07:54:11;99225.34;;;31.60;35.12
65872;BME280;52653;50.080;21.992;2022-07-05T07:56:44;99222.76;;;31.71;35.46
65872;BME280;52653;50.080;21.992;2022-07-05T07:59:19;99222.40;;;31.74;35.68
65872;BME280;52653;50.080;21.992;2022-07-05T08:01:51;99215.09;;;31.81;35.06
65872;BME280;52653;50.080;21.992;2022-07-05T08:04:26;99211.21;;;31.89;35.46
65872;BME280;52653;50.080;21.992;2022-07-05T08:06:58;99205.59;;;32.02;34.90
65872;BME280;52653;50.080;21.992;2022-07-05T08:09:30;99204.77;;;32.14;34.67
65872;BME280;52653;50.080;21.992;2022-07-05T08:12:07;99199.09;;;32.16;34.81
65872;BME280;52653;50.080;21.992;2022-07-05T08:14:39;99197.43;;;32.13;34.30
65872;BME280;52653;50.080;21.992;2022-07-05T08:17:11;99198.58;;;32.16;34.78
65872;BME280;52653;50.080;21.992;2022-07-05T08:19:43;99198.77;;;32.26;34.67
65872;BME280;52653;50.080;21.992;2022-07-05T08:22:33;99190.30;;;32.29;34.49
65872;BME280;52653;50.080;21.992;2022-07-05T08:25:06;99198.23;;;32.23;33.91
65872;BME280;52653;50.080;21.992;2022-07-05T08:27:58;99196.09;;;32.08;34.24
65872;BME280;52653;50.080;21.992;2022-07-05T08:30:30;99193.48;;;31.99;34.33
65872;BME280;52653;50.080;21.992;2022-07-05T08:33:02;99188.64;;;31.95;33.80
65872;BME280;52653;50.080;21.992;2022-07-05T08:35:38;99183.44;;;31.83;33.95
65872;BME280;52653;50.080;21.992;2022-07-05T08:38:10;99184.77;;;31.81;34.10
65872;BME280;52653;50.080;21.992;2022-07-05T08:40:46;99185.23;;;31.76;34.57
65872;BME280;52653;50.080;21.992;2022-07-05T08:43:18;99186.20;;;31.81;35.30
65872;BME280;52653;50.080;21.992;2022-07-05T08:45:54;99186.34;;;31.89;34.62
65872;BME280;52653;50.080;21.992;2022-07-05T08:48:27;99181.81;;;32.00;34.25
65872;BME280;52653;50.080;21.992;2022-07-05T08:51:02;99183.17;;;32.05;34.11
65872;BME280;52653;50.080;21.992;2022-07-05T08:53:34;99182.60;;;32.05;34.24
65872;BME280;52653;50.080;21.992;2022-07-05T08:56:08;99180.44;;;32.22;34.21
65872;BME280;52653;50.080;21.992;2022-07-05T08:58:40;99181.70;;;32.41;33.07
65872;BME280;52653;50.080;21.992;2022-07-05T09:01:15;99178.79;;;32.64;32.48
65872;BME280;52653;50.080;21.992;2022-07-05T09:03:49;99176.19;;;32.96;32.59
65872;BME280;52653;50.080;21.992;2022-07-05T09:06:24;99174.42;;;33.06;31.40
65872;BME280;52653;50.080;21.992;2022-07-05T09:08:57;99175.20;;;32.95;31.22
65872;BME280;52653;50.080;21.992;2022-07-05T09:11:36;99174.88;;;33.09;31.49
65872;BME280;52653;50.080;21.992;2022-07-05T09:14:20;99170.77;;;33.20;31.43
65872;BME280;52653;50.080;21.992;2022-07-05T09:16:58;99171.17;;;33.38;31.79
65872;BME280;52653;50.080;21.992;2022-07-05T09:19:30;99168.55;;;33.49;31.48
65872;BME280;52653;50.080;21.992;2022-07-05T09:22:04;99169.34;;;33.45;30.63
65872;BME280;52653;50.080;21.992;2022-07-05T09:24:44;99171.73;;;33.45;30.79
65872;BME280;52653;50.080;21.992;2022-07-05T09:27:17;99168.89;;;33.41;31.01
65872;BME280;52653;50.080;21.992;2022-07-05T09:29:56;99174.53;;;33.41;31.51
65872;BME280;52653;50.080;21.992;2022-07-05T09:32:33;99172.23;;;33.20;31.28
65872;BME280;52653;50.080;21.992;2022-07-05T09:35:20;99173.03;;;33.07;31.74
65872;BME280;52653;50.080;21.992;2022-07-05T09:37:52;99171.75;;;33.02;32.46
65872;BME280;52653;50.080;21.992;2022-07-05T09:40:24;99167.59;;;33.01;32.73
65872;BME280;52653;50.080;21.992;2022-07-05T09:43:11;99163.09;;;33.07;32.61
65872;BME280;52653;50.080;21.992;2022-07-05T09:45:53;99168.02;;;33.12;32.63
65872;BME280;52653;50.080;21.992;2022-07-05T09:48:26;99171.52;;;33.25;32.33
65872;BME280;52653;50.080;21.992;2022-07-05T09:51:12;99175.46;;;33.24;31.35
65872;BME280;52653;50.080;21.992;2022-07-05T09:54:04;99175.38;;;33.07;31.62
65872;BME280;52653;50.080;21.992;2022-07-05T09:56:47;99173.95;;;33.00;31.60
65872;BME280;52653;50.080;21.992;2022-07-05T09:59:20;99178.78;;;32.86;31.93
65872;BME280;52653;50.080;21.992;2022-07-05T10:01:56;99178.98;;;32.70;32.27
65872;BME280;52653;50.080;21.992;2022-07-05T10:04:28;99175.55;;;32.68;33.10
65872;BME280;52653;50.080;21.992;2022-07-05T10:07:01;99172.52;;;32.63;33.47
65872;BME280;52653;50.080;21.992;2022-07-05T10:09:34;99174.23;;;32.54;33.47
65872;BME280;52653;50.080;21.992;2022-07-05T10:12:07;99174.95;;;32.34;33.63
65872;BME280;52653;50.080;21.992;2022-07-05T10:14:39;99179.08;;;32.10;34.13
65872;BME280;52653;50.080;21.992;2022-07-05T10:17:11;99182.70;;;32.00;34.16
65872;BME280;52653;50.080;21.992;2022-07-05T10:20:08;99182.33;;;31.91;34.17
65872;BME280;52653;50.080;21.992;2022-07-05T10:22:43;99178.19;;;31.94;34.70
65872;BME280;52653;50.080;21.992;2022-07-05T10:25:16;99182.69;;;32.04;34.58
65872;BME280;52653;50.080;21.992;2022-07-05T10:27:48;99185.23;;;32.13;34.18
65872;BME280;52653;50.080;21.992;2022-07-05T10:30:25;99182.84;;;32.16;33.82
65872;BME280;52653;50.080;21.992;2022-07-05T10:32:57;99185.20;;;32.15;34.00
65872;BME280;52653;50.080;21.992;2022-07-05T10:35:30;99187.43;;;32.13;33.52
65872;BME280;52653;50.080;21.992;2022-07-05T10:38:02;99186.95;;;32.13;33.94
65872;BME280;52653;50.080;21.992;2022-07-05T10:40:36;99185.90;;;32.18;34.05
65872;BME280;52653;50.080;21.992;2022-07-05T10:43:08;99184.77;;;32.00;35.16
65872;BME280;52653;50.080;21.992;2022-07-05T10:45:46;99185.11;;;31.64;36.60
65872;BME280;52653;50.080;21.992;2022-07-05T10:48:20;99186.33;;;31.49;37.11
65872;BME280;52653;50.080;21.992;2022-07-05T10:50:54;99188.02;;;31.29;37.46
65872;BME280;52653;50.080;21.992;2022-07-05T10:53:28;99194.33;;;31.06;37.65
65872;BME280;52653;50.080;21.992;2022-07-05T10:56:13;99192.08;;;31.03;37.92
65872;BME280;52653;50.080;21.992;2022-07-05T10:58:46;99193.21;;;30.98;37.86
65872;BME280;52653;50.080;21.992;2022-07-05T11:01:35;99192.88;;;30.88;38.01
65872;BME280;52653;50.080;21.992;2022-07-05T11:04:15;99195.52;;;30.68;37.99
65872;BME280;52653;50.080;21.992;2022-07-05T11:06:49;99198.42;;;30.49;38.42
65872;BME280;52653;50.080;21.992;2022-07-05T11:09:22;99195.11;;;30.32;38.72
65872;BME280;52653;50.080;21.992;2022-07-05T11:12:08;99195.13;;;29.99;38.76
65872;BME280;52653;50.080;21.992;2022-07-05T11:15:07;99191.20;;;29.65;39.18
65872;BME280;52653;50.080;21.992;2022-07-05T11:17:41;99192.66;;;29.38;39.78
65872;BME280;52653;50.080;21.992;2022-07-05T11:20:33;99191.23;;;29.12;40.63
65872;BME280;52653;50.080;21.992;2022-07-05T11:23:10;99184.41;;;29.03;40.88
65872;BME280;52653;50.080;21.992;2022-07-05T11:25:46;99186.63;;;28.94;40.93
65872;BME280;52653;50.080;21.992;2022-07-05T11:28:21;99179.09;;;28.76;41.24
65872;BME280;52653;50.080;21.992;2022-07-05T11:31:00;99178.18;;;28.71;41.40
65872;BME280;52653;50.080;21.992;2022-07-05T11:33:38;99170.20;;;28.55;41.59
65872;BME280;52653;50.080;21.992;2022-07-05T11:36:22;99163.86;;;28.44;42.05
65872;BME280;52653;50.080;21.992;2022-07-05T11:39:16;99162.61;;;28.26;42.27
65872;BME280;52653;50.080;21.992;2022-07-05T11:41:51;99157.40;;;28.08;42.47
65872;BME280;52653;50.080;21.992;2022-07-05T11:44:23;99157.59;;;27.99;42.82
65872;BME280;52653;50.080;21.992;2022-07-05T11:47:16;99154.05;;;27.93;42.67
65872;BME280;52653;50.080;21.992;2022-07-05T11:49:56;99146.98;;;27.92;42.63
65872;BME280;52653;50.080;21.992;2022-07-05T11:52:29;99142.82;;;27.78;42.67
65872;BME280;52653;50.080;21.992;2022-07-05T11:55:03;99133.89;;;27.64;42.94
65872;BME280;52653;50.080;21.992;2022-07-05T11:57:35;99123.58;;;27.62;43.02
65872;BME280;52653;50.080;21.992;2022-07-05T12:00:12;99117.74;;;27.55;43.68
65872;BME280;52653;50.080;21.992;2022-07-05T12:02:45;99111.73;;;27.42;45.03
65872;BME280;52653;50.080;21.992;2022-07-05T12:05:18;99103.98;;;27.29;45.70
65872;BME280;52653;50.080;21.992;2022-07-05T12:07:51;99105.16;;;27.09;46.25
65872;BME280;52653;50.080;21.992;2022-07-05T12:10:24;99114.51;;;26.90;46.66
65872;BME280;52653;50.080;21.992;2022-07-05T12:13:43;99130.75;;;26.59;47.17
65872;BME280;52653;50.080;21.992;2022-07-05T12:16:16;99136.23;;;26.33;47.34
65872;BME280;52653;50.080;21.992;2022-07-05T12:18:53;99134.23;;;26.12;47.88
65872;BME280;52653;50.080;21.992;2022-07-05T12:21:26;99135.26;;;25.95;48.50
65872;BME280;52653;50.080;21.992;2022-07-05T12:23:58;99132.73;;;25.87;49.42
65872;BME280;52653;50.080;21.992;2022-07-05T12:26:30;99131.13;;;25.85;50.31
65872;BME280;52653;50.080;21.992;2022-07-05T12:29:02;99131.20;;;25.84;50.87
65872;BME280;52653;50.080;21.992;2022-07-05T12:31:36;99125.33;;;25.83;51.40
65872;BME280;52653;50.080;21.992;2022-07-05T12:34:18;99120.48;;;25.93;51.64
65872;BME280;52653;50.080;21.992;2022-07-05T12:36:52;99121.86;;;26.06;51.83
65872;BME280;52653;50.080;21.992;2022-07-05T12:39:24;99120.13;;;26.05;51.99
65872;BME280;52653;50.080;21.992;2022-07-05T12:41:56;99115.42;;;25.98;51.97
65872;BME280;52653;50.080;21.992;2022-07-05T12:44:28;99117.80;;;26.02;52.33
65872;BME280;52653;50.080;21.992;2022-07-05T12:47:06;99124.48;;;26.09;52.17
65872;BME280;52653;50.080;21.992;2022-07-05T12:49:55;99125.52;;;26.18;52.03
65872;BME280;52653;50.080;21.992;2022-07-05T12:52:27;99128.30;;;26.31;51.71
65872;BME280;52653;50.080;21.992;2022-07-05T12:55:15;99130.28;;;26.48;50.92
65872;BME280;52653;50.080;21.992;2022-07-05T12:58:04;99133.17;;;26.60;50.59
65872;BME280;52653;50.080;21.992;2022-07-05T13:00:37;99134.52;;;26.54;50.46
65872;BME280;52653;50.080;21.992;2022-07-05T13:03:09;99133.92;;;26.46;50.54
65872;BME280;52653;50.080;21.992;2022-07-05T13:05:41;99135.96;;;26.32;50.40
65872;BME280;52653;50.080;21.992;2022-07-05T13:08:28;99137.23;;;26.20;50.56
65872;BME280;52653;50.080;21.992;2022-07-05T13:11:00;99144.40;;;26.15;50.55
65872;BME280;52653;50.080;21.992;2022-07-05T13:13:31;99152.40;;;26.06;50.87
65872;BME280;52653;50.080;21.992;2022-07-05T13:16:04;99157.05;;;25.97;51.36
65872;BME280;52653;50.080;21.992;2022-07-05T13:18:38;99153.89;;;25.96;51.44
65872;BME280;52653;50.080;21.992;2022-07-05T13:21:11;99162.34;;;25.91;50.99
65872;BME280;52653;50.080;21.992;2022-07-05T13:23:50;99162.54;;;25.88;51.17
65872;BME280;52653;50.080;21.992;2022-07-05T13:26:22;99172.52;;;25.74;51.72
65872;BME280;52653;50.080;21.992;2022-07-05T13:28:54;99175.48;;;25.67;52.18
65872;BME280;52653;50.080;21.992;2022-07-05T13:31:26;99181.05;;;25.54;51.84